Time;durP1;ratioP1;P1;durP2;ratioP2;P2;SDS_P1;SDS_P2;PMS_P1;PMS_P2;Temp;Humidity;BMP_temperature;BMP_pressure;BME280_temperature;BME280_humidity;BME280_pressure;Samples;Min_cycle;Max_cycle;Signal;HPM_P1;HPM_P2
2023/11/20 00:00:39;;;;;;;;;;;;;;;8.87;100.00;96394.25;5103732;28;19985;-72
2023/11/20 00:03:04;;;;;;;;;;;;;;;8.90;100.00;96387.81;5103773;28;19939;-71
2023/11/20 00:05:30;;;;;;;;;;;;;;;8.91;100.00;96387.59;5085898;28;19962;-72
2023/11/20 00:07:56;;;;;;;;;;;;;;;8.94;100.00;96387.19;5120619;28;19992;-71
2023/11/20 00:10:22;;;;;;;;;;;;;;;8.97;100.00;96395.66;5103873;28;20018;-71
2023/11/20 00:12:48;;;;;;;;;;;;;;;8.97;100.00;96385.97;5120527;28;19940;-72
2023/11/20 00:15:14;;;;;;;;;;;;;;;8.96;100.00;96376.50;5105406;28;20008;-71
2023/11/20 00:17:40;;;;;;;;;;;;;;;8.95;100.00;96382.75;5104490;28;19963;-73
2023/11/20 00:20:07;;;;;;;;;;;;;;;8.95;100.00;96388.00;5104083;28;20232;-72
2023/11/20 00:22:33;;;;;;;;;;;;;;;8.92;100.00;96393.63;5104101;28;20219;-74
2023/11/20 00:24:58;;;;;;;;;;;;;;;8.89;100.00;96387.00;5087197;28;20036;-73
2023/11/20 00:27:24;;;;;;;;;;;;;;;8.89;100.00;96396.69;5087179;28;19942;-72
2023/11/20 00:29:50;;;;;;;;;;;;;;;8.87;100.00;96386.41;5103719;28;19941;-73
2023/11/20 00:32:16;;;;;;;;;;;;;;;8.85;100.00;96383.19;5087074;28;20272;-89
2023/11/20 00:34:42;;;;;;;;;;;;;;;8.83;100.00;96387.84;5105122;28;20264;-74
2023/11/20 00:37:08;;;;;;;;;;;;;;;8.81;100.00;96394.28;5120030;28;20226;-74
2023/11/20 00:39:33;;;;;;;;;;;;;;;8.80;100.00;96395.28;5105114;28;19942;-74
2023/11/20 00:41:59;;;;;;;;;;;;;;;8.74;100.00;96392.50;5104965;28;19965;-74
2023/11/20 00:44:25;;;;;;;;;;;;;;;8.70;100.00;96400.97;5103001;28;19953;-74
2023/11/20 00:46:51;;;;;;;;;;;;;;;8.68;100.00;96398.56;5103848;28;19945;-74
2023/11/20 00:49:17;;;;;;;;;;;;;;;8.65;100.00;96392.94;5103073;28;19986;-74
2023/11/20 00:51:43;;;;;;;;;;;;;;;8.63;100.00;96410.63;5104635;28;19947;-74
2023/11/20 00:54:09;;;;;;;;;;;;;;;8.61;100.00;96403.03;5086850;28;19940;-75
2023/11/20 00:56:35;;;;;;;;;;;;;;;8.59;100.00;96396.38;5104068;28;19944;-74
2023/11/20 00:59:01;;;;;;;;;;;;;;;8.57;100.00;96387.94;5104609;28;19983;-74
2023/11/20 01:01:26;;;;;;;;;;;;;;;8.56;100.00;96388.94;5104017;28;19958;-74
2023/11/20 01:03:52;;;;;;;;;;;;;;;8.56;100.00;96392.34;5120470;28;19945;-74
2023/11/20 01:06:18;;;;;;;;;;;;;;;8.55;100.00;96398.63;5104790;28;19972;-74
2023/11/20 01:08:44;;;;;;;;;;;;;;;8.54;100.00;96403.00;5103973;28;19945;-73
2023/11/20 01:11:10;;;;;;;;;;;;;;;8.51;100.00;96392.19;5085928;28;20169;-75
2023/11/20 01:13:36;;;;;;;;;;;;;;;8.48;100.00;96396.03;5104692;28;19942;-75
2023/11/20 01:16:04;;;;;;;;;;;;;;;8.47;100.00;96391.78;5105520;28;19939;-74
2023/11/20 01:18:33;;;;;;;;;;;;;;;8.46;100.00;96395.44;5107989;28;20217;-75
2023/11/20 01:20:59;;;;;;;;;;;;;;;8.45;100.00;96406.06;5108653;28;20113;-74
2023/11/20 01:23:25;;;;;;;;;;;;;;;8.43;100.00;96401.03;5107911;28;19949;-74
2023/11/20 01:25:51;;;;;;;;;;;;;;;8.45;100.00;96400.84;5123717;28;19970;-74
2023/11/20 01:28:17;;;;;;;;;;;;;;;8.44;100.00;96405.28;5108353;28;19935;-74
2023/11/20 01:30:42;;;;;;;;;;;;;;;8.43;100.00;96397.63;5107793;28;19971;-70
2023/11/20 01:33:08;;;;;;;;;;;;;;;8.43;100.00;96401.03;5106547;28;20048;-70
2023/11/20 01:35:34;;;;;;;;;;;;;;;8.45;100.00;96399.03;5108471;28;19947;-71
2023/11/20 01:38:00;;;;;;;;;;;;;;;8.47;100.00;96399.63;5107451;28;19968;-70
2023/11/20 01:40:26;;;;;;;;;;;;;;;8.51;100.00;96403.44;5123353;28;19950;-70
2023/11/20 01:42:51;;;;;;;;;;;;;;;8.52;100.00;96396.41;5107216;28;19943;-70
2023/11/20 01:45:17;;;;;;;;;;;;;;;8.56;100.00;96397.59;5106328;28;20289;-74
2023/11/20 01:47:43;;;;;;;;;;;;;;;8.58;100.00;96394.78;5107467;28;20227;-71
2023/11/20 01:50:10;;;;;;;;;;;;;;;8.60;100.00;96385.72;5124084;28;19966;-74
2023/11/20 01:52:41;;;;;;;;;;;;;;;8.64;100.00;96380.88;5107293;28;20221;-74
2023/11/20 01:55:07;;;;;;;;;;;;;;;8.66;100.00;96374.44;5107291;28;19998;-74
2023/11/20 01:57:34;;;;;;;;;;;;;;;8.67;100.00;96383.91;5107262;28;20119;-74
2023/11/20 02:00:01;;;;;;;;;;;;;;;8.67;100.00;96378.66;5123938;28;19944;-74
2023/11/20 02:02:27;;;;;;;;;;;;;;;8.64;100.00;96386.91;5107114;28;19951;-74
2023/11/20 02:04:55;;;;;;;;;;;;;;;8.61;100.00;96376.88;5106859;28;19977;-71
2023/11/20 02:07:21;;;;;;;;;;;;;;;8.59;100.00;96367.63;5123110;28;19939;-72
2023/11/20 02:09:47;;;;;;;;;;;;;;;8.58;100.00;96377.28;5123648;28;20209;-71
2023/11/20 02:12:13;;;;;;;;;;;;;;;8.56;100.00;96368.03;5106929;28;19938;-72
2023/11/20 02:14:39;;;;;;;;;;;;;;;8.54;100.00;96366.41;5106560;28;19939;-72
2023/11/20 02:17:05;;;;;;;;;;;;;;;8.51;100.00;96356.41;5106894;28;19943;-72
2023/11/20 02:19:30;;;;;;;;;;;;;;;8.48;100.00;96354.22;5106765;28;19938;-72
2023/11/20 02:21:58;;;;;;;;;;;;;;;8.45;100.00;96361.66;5106411;28;19964;-74
2023/11/20 02:24:25;;;;;;;;;;;;;;;8.43;100.00;96364.47;5107603;28;19948;-74
2023/11/20 02:27:06;;;;;;;;;;;;;;;8.41;100.00;96376.13;5106883;28;20113;-74
2023/11/20 02:29:32;;;;;;;;;;;;;;;8.37;100.00;96380.13;5089365;28;19938;-73
2023/11/20 02:31:58;;;;;;;;;;;;;;;8.34;100.00;96369.09;5088504;28;20131;-72
2023/11/20 02:34:24;;;;;;;;;;;;;;;8.36;100.00;96373.28;5105360;28;19944;-73
2023/11/20 02:36:50;;;;;;;;;;;;;;;8.34;100.00;96363.06;5089187;28;19980;-73
2023/11/20 02:39:16;;;;;;;;;;;;;;;8.32;100.00;96365.88;5105081;28;20339;-73
2023/11/20 02:41:45;;;;;;;;;;;;;;;8.32;100.00;96365.88;5122730;28;19966;-73
2023/11/20 02:44:11;;;;;;;;;;;;;;;8.30;100.00;96367.88;5122230;28;19958;-72
2023/11/20 02:46:37;;;;;;;;;;;;;;;8.28;100.00;96362.06;5105529;28;19934;-72
2023/11/20 02:49:04;;;;;;;;;;;;;;;8.27;100.00;96355.25;5105190;28;19978;-72
2023/11/20 02:51:30;;;;;;;;;;;;;;;8.26;100.00;96361.47;5088262;28;20119;-71
2023/11/20 02:53:56;;;;;;;;;;;;;;;8.26;100.00;96363.28;5105098;28;20226;-71
2023/11/20 02:56:24;;;;;;;;;;;;;;;8.24;100.00;96362.69;5106615;28;19939;-71
2023/11/20 02:58:50;;;;;;;;;;;;;;;8.22;100.00;96365.50;5106607;28;20207;-72
2023/11/20 03:01:16;;;;;;;;;;;;;;;8.20;100.00;96346.59;5104894;28;20165;-82
2023/11/20 03:03:42;;;;;;;;;;;;;;;8.18;100.00;96342.59;5104892;28;19933;-74
2023/11/20 03:06:08;;;;;;;;;;;;;;;8.17;100.00;96346.22;5106449;28;19941;-74
2023/11/20 03:08:34;;;;;;;;;;;;;;;8.12;100.00;96339.00;5106661;28;19940;-74
2023/11/20 03:11:00;;;;;;;;;;;;;;;8.11;100.00;96345.22;5106080;28;20008;-74
2023/11/20 03:13:25;;;;;;;;;;;;;;;8.09;100.00;96337.59;5106299;28;20002;-74
2023/11/20 03:15:51;;;;;;;;;;;;;;;8.11;100.00;96337.41;5106283;28;20217;-75
2023/11/20 03:18:18;;;;;;;;;;;;;;;8.10;100.00;96338.38;5105745;28;20002;-74
2023/11/20 03:20:44;;;;;;;;;;;;;;;8.09;100.00;96353.25;5122259;28;20182;-75
2023/11/20 03:23:13;;;;;;;;;;;;;;;8.07;100.00;96344.84;5122285;28;19938;-74
2023/11/20 03:25:39;;;;;;;;;;;;;;;8.03;100.00;96337.63;5106329;28;19940;-76
2023/11/20 03:28:05;;;;;;;;;;;;;;;7.99;100.00;96331.19;5121317;28;19941;-74
2023/11/20 03:30:32;;;;;;;;;;;;;;;7.96;100.00;96335.03;5106205;28;19965;-74
2023/11/20 03:32:58;;;;;;;;;;;;;;;7.93;100.00;96335.41;5105424;28;19938;-75
2023/11/20 03:35:24;;;;;;;;;;;;;;;7.91;100.00;96333.00;5106132;28;19947;-75
2023/11/20 03:37:50;;;;;;;;;;;;;;;7.90;100.00;96346.28;5105331;28;19967;-72
2023/11/20 03:40:16;;;;;;;;;;;;;;;7.86;100.00;96327.59;5121951;28;19946;-82
2023/11/20 03:42:42;;;;;;;;;;;;;;;7.86;100.00;96342.47;5105669;28;20298;-82
2023/11/20 03:45:08;;;;;;;;;;;;;;;7.81;100.00;96343.06;5105176;28;20138;-83
2023/11/20 03:47:34;;;;;;;;;;;;;;;7.75;100.00;96328.22;5105956;28;19936;-82
2023/11/20 03:50:00;;;;;;;;;;;;;;;7.75;100.00;96338.66;5121654;28;19944;-83
2023/11/20 03:52:26;;;;;;;;;;;;;;;7.77;100.00;96346.28;5105534;28;19943;-82
2023/11/20 03:54:52;;;;;;;;;;;;;;;7.79;100.00;96346.88;5105039;28;20128;-76
2023/11/20 03:57:18;;;;;;;;;;;;;;;7.81;100.00;96353.53;5105069;28;19988;-75
2023/11/20 03:59:44;;;;;;;;;;;;;;;7.84;100.00;96347.09;5121530;28;19939;-75
2023/11/20 04:02:10;;;;;;;;;;;;;;;7.87;100.00;96342.28;5121415;28;20079;-75
2023/11/20 04:04:36;;;;;;;;;;;;;;;7.88;100.00;96343.06;5104851;28;19946;-75
2023/11/20 04:07:02;;;;;;;;;;;;;;;7.86;100.00;96339.84;5105053;28;20060;-75
2023/11/20 04:09:27;;;;;;;;;;;;;;;7.82;100.00;96336.84;5104714;28;19945;-75
2023/11/20 04:11:54;;;;;;;;;;;;;;;7.83;100.00;96335.03;5105539;28;20115;-75
2023/11/20 04:14:20;;;;;;;;;;;;;;;7.82;100.00;96336.03;5104723;28;19939;-92
2023/11/20 04:16:46;;;;;;;;;;;;;;;7.80;100.00;96340.66;5104805;28;19944;-74
2023/11/20 04:19:13;;;;;;;;;;;;;;;7.80;100.00;96343.28;5104568;28;19942;-75
2023/11/20 04:21:39;;;;;;;;;;;;;;;7.78;100.00;96340.84;5104469;28;20265;-74
2023/11/20 04:24:05;;;;;;;;;;;;;;;7.78;100.00;96338.25;5120649;28;19935;-74
2023/11/20 04:26:31;;;;;;;;;;;;;;;7.77;100.00;96331.44;5105043;28;19937;-75
2023/11/20 04:28:58;;;;;;;;;;;;;;;7.77;100.00;96341.88;5104416;28;19951;-74
2023/11/20 04:31:25;;;;;;;;;;;;;;;7.76;100.00;96342.06;5104391;28;20237;-73
2023/11/20 04:33:51;;;;;;;;;;;;;;;7.75;100.00;96341.28;5119207;28;19946;-71
2023/11/20 04:36:17;;;;;;;;;;;;;;;7.82;100.00;96331.63;5120926;28;19945;-74
2023/11/20 04:38:42;;;;;;;;;;;;;;;7.92;100.00;96337.22;5102959;28;19968;-74
2023/11/20 04:41:08;;;;;;;;;;;;;;;8.04;100.00;96326.97;5120601;28;19944;-74
2023/11/20 04:43:34;;;;;;;;;;;;;;;8.13;100.00;96325.72;5104163;28;19959;-73
2023/11/20 04:46:00;;;;;;;;;;;;;;;8.19;100.00;96336.34;5104068;28;19947;-73
2023/11/20 04:48:26;;;;;;;;;;;;;;;8.27;100.00;96328.28;5119951;28;19993;-74
2023/11/20 04:50:55;;;;;;;;;;;;;;;8.31;100.00;96319.03;5103800;28;19934;-72
2023/11/20 04:53:23;;;;;;;;;;;;;;;8.39;100.00;96304.97;5120841;28;19948;-83
2023/11/20 04:55:49;;;;;;;;;;;;;;;8.45;100.00;96307.56;5104341;28;19940;-83
2023/11/20 04:58:21;;;;;;;;;;;;;;;8.48;100.00;96312.41;5104667;28;19941;-83
2023/11/20 05:00:47;;;;;;;;;;;;;;;8.52;100.00;96318.81;5120690;28;19942;-82
2023/11/20 05:03:13;;;;;;;;;;;;;;;8.54;100.00;96315.97;5104014;28;19954;-83
2023/11/20 05:05:39;;;;;;;;;;;;;;;8.56;100.00;96315.78;5120632;28;19949;-83
2023/11/20 05:08:05;;;;;;;;;;;;;;;8.57;100.00;96325.19;5120926;28;20085;-75
2023/11/20 05:10:31;;;;;;;;;;;;;;;8.60;100.00;96312.53;5105021;28;20137;-73
2023/11/20 05:12:56;;;;;;;;;;;;;;;8.61;100.00;96314.16;5103382;28;19944;-73
2023/11/20 05:15:22;;;;;;;;;;;;;;;8.61;100.00;96305.47;5103395;28;19942;-73
2023/11/20 05:17:48;;;;;;;;;;;;;;;8.63;100.00;96311.31;5103328;28;20156;-73
2023/11/20 05:20:14;;;;;;;;;;;;;;;8.64;100.00;96323.38;5119710;28;20120;-74
2023/11/20 05:22:40;;;;;;;;;;;;;;;8.62;100.00;96331.41;5119551;28;19953;-73
2023/11/20 05:25:07;;;;;;;;;;;;;;;8.62;100.00;96317.56;5120451;28;19943;-73
2023/11/20 05:27:33;;;;;;;;;;;;;;;8.63;100.00;96326.97;5104335;28;19939;-72
2023/11/20 05:29:58;;;;;;;;;;;;;;;8.62;100.00;96310.50;5086494;28;19954;-75
2023/11/20 05:32:24;;;;;;;;;;;;;;;8.63;100.00;96311.31;5103778;28;19942;-75
2023/11/20 05:34:50;;;;;;;;;;;;;;;8.63;100.00;96325.19;5120198;28;19947;-74
2023/11/20 05:37:16;;;;;;;;;;;;;;;8.65;100.00;96322.34;5085568;28;19996;-75
2023/11/20 05:39:42;;;;;;;;;;;;;;;8.65;100.00;96327.56;5104212;28;19944;-75
2023/11/20 05:42:08;;;;;;;;;;;;;;;8.65;100.00;96324.97;5103590;28;19960;-74
2023/11/20 05:44:34;;;;;;;;;;;;;;;8.66;100.00;96318.75;5103622;28;19957;-71
2023/11/20 05:46:59;;;;;;;;;;;;;;;8.66;100.00;96311.69;5120266;28;20117;-71
2023/11/20 05:49:25;;;;;;;;;;;;;;;8.67;100.00;96307.25;5103857;28;19943;-89
2023/11/20 05:51:51;;;;;;;;;;;;;;;8.67;100.00;96315.09;5104058;28;19936;-90
2023/11/20 05:54:17;;;;;;;;;;;;;;;8.68;100.00;96293.19;5104505;28;19933;-90
2023/11/20 05:56:46;;;;;;;;;;;;;;;8.70;100.00;96314.69;5103848;28;19938;-91
2023/11/20 05:59:12;;;;;;;;;;;;;;;8.71;100.00;96290.16;5120480;28;19945;-89
2023/11/20 06:01:38;;;;;;;;;;;;;;;8.71;100.00;96303.22;5103935;28;20280;-90
2023/11/20 06:04:04;;;;;;;;;;;;;;;8.72;100.00;96297.00;5106661;28;19943;-71
2023/11/20 06:06:30;;;;;;;;;;;;;;;8.71;100.00;96293.59;5124417;28;19939;-70
2023/11/20 06:08:56;;;;;;;;;;;;;;;8.72;100.00;96289.16;5106007;28;19940;-71
2023/11/20 06:11:22;;;;;;;;;;;;;;;8.72;100.00;96287.31;5107029;28;19938;-71
2023/11/20 06:13:48;;;;;;;;;;;;;;;8.74;100.00;96284.50;5107489;28;19936;-71
2023/11/20 06:16:14;;;;;;;;;;;;;;;8.75;100.00;96288.72;5122770;28;19937;-72
2023/11/20 06:18:40;;;;;;;;;;;;;;;8.76;100.00;96281.66;5106885;28;19941;-72
2023/11/20 06:21:06;;;;;;;;;;;;;;;8.75;100.00;96286.09;5106863;28;19982;-80
2023/11/20 06:23:32;;;;;;;;;;;;;;;8.74;100.00;96281.91;5107478;28;19960;-71
2023/11/20 06:25:58;;;;;;;;;;;;;;;8.74;100.00;96276.66;5122991;28;19998;-73
2023/11/20 06:28:24;;;;;;;;;;;;;;;8.74;100.00;96282.69;5123356;28;20120;-72
2023/11/20 06:30:53;;;;;;;;;;;;;;;8.74;100.00;96303.59;5123303;28;19938;-72
2023/11/20 06:33:22;;;;;;;;;;;;;;;8.74;100.00;96285.31;5106817;28;19942;-72
2023/11/20 06:35:47;;;;;;;;;;;;;;;8.75;100.00;96304.41;5105306;28;19955;-73
2023/11/20 06:38:13;;;;;;;;;;;;;;;8.76;100.00;96294.75;5088269;28;19968;-72
2023/11/20 06:40:39;;;;;;;;;;;;;;;8.78;100.00;96324.09;5123262;28;19946;-73
2023/11/20 06:43:06;;;;;;;;;;;;;;;8.77;100.00;96302.38;5105315;28;19969;-74
2023/11/20 06:45:32;;;;;;;;;;;;;;;8.79;100.00;96320.47;5106334;28;19952;-75
2023/11/20 06:47:58;;;;;;;;;;;;;;;8.81;100.00;96303.56;5107126;28;19935;-75
2023/11/20 06:50:24;;;;;;;;;;;;;;;8.82;100.00;96320.06;5106266;28;20121;-75
2023/11/20 06:52:54;;;;;;;;;;;;;;;8.81;100.00;96306.19;5122888;28;19949;-75
2023/11/20 06:55:21;;;;;;;;;;;;;;;8.83;100.00;96313.81;5106669;28;20120;-75
2023/11/20 06:57:47;;;;;;;;;;;;;;;8.83;100.00;96308.59;5106054;28;19943;-75
2023/11/20 07:00:13;;;;;;;;;;;;;;;8.82;100.00;96305.19;5106947;28;19940;-73
2023/11/20 07:02:39;;;;;;;;;;;;;;;8.82;100.00;96309.59;5121827;28;19957;-71
2023/11/20 07:05:07;;;;;;;;;;;;;;;8.82;100.00;96326.09;5122609;28;19946;-71
2023/11/20 07:07:40;;;;;;;;;;;;;;;8.81;100.00;96318.47;5121805;28;19937;-71
2023/11/20 07:10:11;;;;;;;;;;;;;;;8.81;100.00;96313.22;5106444;28;19948;-71
2023/11/20 07:12:38;;;;;;;;;;;;;;;8.81;100.00;96327.09;5106096;28;19941;-71
2023/11/20 07:15:07;;;;;;;;;;;;;;;8.80;100.00;96319.47;5105376;28;19944;-71
2023/11/20 07:17:33;;;;;;;;;;;;;;;8.80;100.00;96322.06;5121585;28;19950;-88
2023/11/20 07:19:59;;;;;;;;;;;;;;;8.80;100.00;96327.31;5105764;28;19940;-76
2023/11/20 07:22:27;;;;;;;;;;;;;;;8.79;100.00;96341.41;5121740;28;19957;-76
2023/11/20 07:24:52;;;;;;;;;;;;;;;8.77;100.00;96327.72;5104485;28;19946;-76
2023/11/20 07:27:18;;;;;;;;;;;;;;;8.75;100.00;96335.78;5106377;28;20009;-76
2023/11/20 07:29:44;;;;;;;;;;;;;;;8.73;100.00;96341.25;5105454;28;19938;-76
2023/11/20 07:32:10;;;;;;;;;;;;;;;8.72;100.00;96347.47;5105530;28;19937;-76
2023/11/20 07:34:36;;;;;;;;;;;;;;;8.70;100.00;96343.47;5121374;28;19976;-76
2023/11/20 07:37:02;;;;;;;;;;;;;;;8.69;100.00;96341.84;5105383;28;19993;-72
2023/11/20 07:39:27;;;;;;;;;;;;;;;8.68;100.00;96343.66;5104824;28;19985;-74
2023/11/20 07:41:53;;;;;;;;;;;;;;;8.69;100.00;96342.66;5121085;28;19966;-73
2023/11/20 07:44:21;;;;;;;;;;;;;;;8.71;100.00;96339.81;5121747;28;19992;-73
2023/11/20 07:46:47;;;;;;;;;;;;;;;8.72;100.00;96337.00;5103999;28;20192;-73
2023/11/20 07:49:14;;;;;;;;;;;;;;;8.73;100.00;96330.78;5121797;28;20112;-72
2023/11/20 07:51:40;;;;;;;;;;;;;;;8.77;100.00;96325.13;5120890;28;19937;-73
2023/11/20 07:54:07;;;;;;;;;;;;;;;8.80;100.00;96333.34;5120874;28;20119;-73
2023/11/20 07:56:34;;;;;;;;;;;;;;;8.82;100.00;96330.50;5104112;28;19954;-72
2023/11/20 07:59:00;;;;;;;;;;;;;;;8.85;100.00;96325.66;5104950;28;20133;-71
2023/11/20 08:01:25;;;;;;;;;;;;;;;8.87;100.00;96330.69;5104517;28;19942;-71
2023/11/20 08:03:51;;;;;;;;;;;;;;;8.88;100.00;96324.44;5120569;28;19960;-71
2023/11/20 08:06:19;;;;;;;;;;;;;;;8.90;100.00;96319.81;5120749;28;20023;-71
2023/11/20 08:08:45;;;;;;;;;;;;;;;8.90;100.00;96328.47;5105681;28;20135;-72
2023/11/20 08:11:11;;;;;;;;;;;;;;;8.92;100.00;96339.53;5104714;28;19947;-71
2023/11/20 08:13:37;;;;;;;;;;;;;;;8.93;100.00;96337.72;5104790;28;19936;-73
2023/11/20 08:16:03;;;;;;;;;;;;;;;8.92;100.00;96321.22;5103493;28;20226;-71
2023/11/20 08:18:29;;;;;;;;;;;;;;;8.93;100.00;96308.94;5120497;28;19941;-71
2023/11/20 08:20:55;;;;;;;;;;;;;;;8.96;100.00;96320.78;5105061;28;20207;-71
2023/11/20 08:23:24;;;;;;;;;;;;;;;8.99;100.00;96325.59;5104504;28;19996;-72
2023/11/20 08:25:50;;;;;;;;;;;;;;;9.01;100.00;96327.00;5120207;28;19941;-71
2023/11/20 08:28:16;;;;;;;;;;;;;;;9.03;100.00;96319.75;5104812;28;19937;-71
2023/11/20 08:30:42;;;;;;;;;;;;;;;9.05;100.00;96315.09;5120247;28;19987;-72
2023/11/20 08:33:07;;;;;;;;;;;;;;;9.06;100.00;96319.31;5104432;28;19970;-75
2023/11/20 08:35:34;;;;;;;;;;;;;;;9.08;100.00;96329.56;5104593;28;20216;-71
2023/11/20 08:38:00;;;;;;;;;;;;;;;9.07;100.00;96334.00;5119875;28;19964;-72
2023/11/20 08:40:26;;;;;;;;;;;;;;;9.07;100.00;96327.97;5104228;28;19943;-72
2023/11/20 08:42:52;;;;;;;;;;;;;;;9.07;100.00;96320.09;5119960;28;19968;-72
2023/11/20 08:45:18;;;;;;;;;;;;;;;9.08;100.00;96322.53;5120032;28;19996;-72
2023/11/20 08:47:45;;;;;;;;;;;;;;;9.12;100.00;96328.94;5120702;28;19939;-72
2023/11/20 08:50:11;;;;;;;;;;;;;;;9.15;100.00;96317.25;5120813;28;19948;-72
2023/11/20 08:52:37;;;;;;;;;;;;;;;9.16;100.00;96318.06;5103742;28;20115;-72
2023/11/20 08:55:05;;;;;;;;;;;;;;;9.13;100.00;96314.03;5104864;28;19962;-71
2023/11/20 08:57:30;;;;;;;;;;;;;;;9.15;100.00;96325.09;5104079;28;19938;-72
2023/11/20 08:59:57;;;;;;;;;;;;;;;9.16;100.00;96323.31;5086016;28;20127;-71
2023/11/20 09:02:24;;;;;;;;;;;;;;;9.16;100.00;96316.25;5104481;28;19955;-71
2023/11/20 09:04:50;;;;;;;;;;;;;;;9.16;100.00;96311.00;5103981;28;19938;-72
2023/11/20 09:07:15;;;;;;;;;;;;;;;9.17;100.00;96322.28;5119842;28;19938;-75
2023/11/20 09:09:41;;;;;;;;;;;;;;;9.14;100.00;96315.66;5120203;28;19937;-72
2023/11/20 09:12:07;;;;;;;;;;;;;;;9.17;100.00;96323.06;5104201;28;19982;-71
2023/11/20 09:14:33;;;;;;;;;;;;;;;9.20;100.00;96321.84;5119791;28;20004;-71
2023/11/20 09:16:59;;;;;;;;;;;;;;;9.22;100.00;96314.56;5103584;28;19982;-72
2023/11/20 09:19:26;;;;;;;;;;;;;;;9.25;100.00;96311.56;5119693;28;20231;-72
2023/11/20 09:21:52;;;;;;;;;;;;;;;9.25;100.00;96301.09;5103521;28;20111;-72
2023/11/20 09:24:18;;;;;;;;;;;;;;;9.24;100.00;96308.13;5104537;28;19962;-72
2023/11/20 09:26:44;;;;;;;;;;;;;;;9.24;100.00;96302.91;5103431;28;19947;-72
2023/11/20 09:29:10;;;;;;;;;;;;;;;9.26;100.00;96310.53;5103277;28;19942;-74
2023/11/20 09:31:36;;;;;;;;;;;;;;;9.29;100.00;96302.25;5119718;28;19937;-75
2023/11/20 09:34:03;;;;;;;;;;;;;;;9.35;100.00;96301.41;5104509;28;19942;-75
2023/11/20 09:36:29;;;;;;;;;;;;;;;9.42;100.00;96299.53;5104419;28;19935;-74
2023/11/20 09:38:54;;;;;;;;;;;;;;;9.48;100.00;96295.25;5123411;28;20220;-74
2023/11/20 09:41:20;;;;;;;;;;;;;;;9.54;100.00;96303.06;5107804;28;19947;-75
2023/11/20 09:43:47;;;;;;;;;;;;;;;9.60;100.00;96290.16;5107413;28;19967;-73
2023/11/20 09:46:14;;;;;;;;;;;;;;;9.65;100.00;96285.84;5124006;28;20207;-73
2023/11/20 09:48:43;;;;;;;;;;;;;;;9.70;100.00;96274.72;5107610;28;19937;-72
2023/11/20 09:51:10;;;;;;;;;;;;;;;9.72;100.00;96270.88;5122351;28;19937;-72
2023/11/20 09:53:37;;;;;;;;;;;;;;;9.79;100.00;96272.63;5106290;28;19950;-72
2023/11/20 09:56:04;;;;;;;;;;;;;;;9.85;100.00;96274.38;5124163;28;19942;-73
2023/11/20 09:58:33;;;;;;;;;;;;;;;9.94;100.00;96258.16;5107007;28;19950;-72
2023/11/20 10:01:09;;;;;;;;;;;;;;;10.10;100.00;96263.81;5108046;28;19939;-72
2023/11/20 10:03:41;;;;;;;;;;;;;;;10.21;100.00;96259.69;5123872;28;19961;-75
2023/11/20 10:06:08;;;;;;;;;;;;;;;10.25;100.00;96248.56;5123042;28;20190;-73
2023/11/20 10:08:38;;;;;;;;;;;;;;;10.35;100.00;96246.25;5107664;28;19946;-73
2023/11/20 10:11:05;;;;;;;;;;;;;;;10.48;100.00;96244.47;5089072;28;19946;-73
2023/11/20 10:13:31;;;;;;;;;;;;;;;10.55;100.00;96222.38;5122928;28;20220;-73
2023/11/20 10:15:57;;;;;;;;;;;;;;;10.67;100.00;96247.84;5107214;28;19950;-73
2023/11/20 10:18:24;;;;;;;;;;;;;;;10.72;100.00;96247.97;5122812;28;19943;-72
2023/11/20 10:20:51;;;;;;;;;;;;;;;10.73;100.00;96224.16;5107409;28;20133;-75
2023/11/20 10:23:17;;;;;;;;;;;;;;;10.75;100.00;96237.84;5106781;28;19966;-73
2023/11/20 10:25:46;;;;;;;;;;;;;;;10.75;100.00;96242.25;5105746;28;20234;-73
2023/11/20 10:28:14;;;;;;;;;;;;;;;10.73;100.00;96218.06;5106368;28;19964;-73
2023/11/20 10:30:45;;;;;;;;;;;;;;;10.68;100.00;96212.72;5089463;28;19947;-73
2023/11/20 10:33:14;;;;;;;;;;;;;;;10.64;100.00;96235.16;5122462;28;20120;-73
2023/11/20 10:35:40;;;;;;;;;;;;;;;10.56;100.00;96217.91;5123278;28;19942;-72
2023/11/20 10:38:07;;;;;;;;;;;;;;;10.46;100.00;96220.31;5105174;28;20258;-73
2023/11/20 10:40:32;;;;;;;;;;;;;;;10.27;100.00;96246.50;5106130;28;19955;-82
2023/11/20 10:42:58;;;;;;;;;;;;;;;10.05;100.00;96261.06;5106952;28;19954;-72
2023/11/20 10:45:24;;;;;;;;;;;;;;;9.86;100.00;96266.31;5089060;28;20023;-74
2023/11/20 10:47:51;;;;;;;;;;;;;;;9.73;100.00;96258.59;5121879;28;20102;-74
2023/11/20 10:50:17;;;;;;;;;;;;;;;9.61;100.00;96255.88;5105630;28;20119;-75
2023/11/20 10:52:44;;;;;;;;;;;;;;;9.45;100.00;96265.09;5105950;28;19936;-76
2023/11/20 10:55:14;;;;;;;;;;;;;;;9.35;100.00;96254.31;5122014;28;19971;-77
2023/11/20 10:57:40;;;;;;;;;;;;;;;9.28;100.00;96245.69;5106174;28;20114;-83
2023/11/20 11:00:10;;;;;;;;;;;;;;;9.25;100.00;96238.28;5106669;28;19940;-71
2023/11/20 11:02:44;;;;;;;;;;;;;;;9.31;100.00;96234.81;5106773;28;19949;-74
2023/11/20 11:05:12;;;;;;;;;;;;;;;9.39;100.00;96237.16;5106254;28;19941;-74
2023/11/20 11:07:39;;;;;;;;;;;;;;;9.48;100.00;96238.47;5106530;28;19940;-74
2023/11/20 11:10:11;;;;;;;;;;;;;;;9.54;100.00;96240.22;5122603;28;20112;-74
2023/11/20 11:12:41;;;;;;;;;;;;;;;9.53;100.00;96243.06;5106460;28;19942;-74
2023/11/20 11:15:14;;;;;;;;;;;;;;;9.51;100.00;96234.63;5105833;28;19945;-74
2023/11/20 11:17:44;;;;;;;;;;;;;;;9.51;100.00;96226.75;5106323;28;19937;-76
2023/11/20 11:20:12;;;;;;;;;;;;;;;9.52;100.00;96225.75;5106359;28;19937;-82
2023/11/20 11:22:39;;;;;;;;;;;;;;;9.56;100.00;96226.94;5105914;28;19960;-82
2023/11/20 11:25:10;;;;;;;;;;;;;;;9.60;100.00;96222.06;5106440;28;20088;-82
2023/11/20 11:27:37;;;;;;;;;;;;;;;9.67;100.00;96222.78;5106450;28;19943;-82
2023/11/20 11:30:07;;;;;;;;;;;;;;;9.77;100.00;96215.25;5106579;28;19944;-82
2023/11/20 11:32:36;;;;;;;;;;;;;;;10.00;100.00;96211.97;5105727;28;19965;-82
2023/11/20 11:35:20;;;;;;;;;;;;;;;10.32;100.00;96203.94;5106370;28;20029;-74
2023/11/20 11:38:01;;;;;;;;;;;;;;;10.64;100.00;96196.63;5087115;28;19978;-74
2023/11/20 11:40:49;;;;;;;;;;;;;;;10.87;100.00;96168.84;5088069;28;20012;-72
2023/11/20 11:43:22;;;;;;;;;;;;;;;10.91;100.00;96168.16;5120948;28;19960;-73
2023/11/20 11:45:49;;;;;;;;;;;;;;;10.77;100.00;96178.09;5121884;28;19945;-73
2023/11/20 11:48:16;;;;;;;;;;;;;;;10.63;100.00;96184.53;5121937;28;20130;-72
2023/11/20 11:50:43;;;;;;;;;;;;;;;10.53;100.00;96179.03;5121570;28;19946;-72
2023/11/20 11:53:10;;;;;;;;;;;;;;;10.46;100.00;96178.34;5120914;28;19947;-72
2023/11/20 11:55:41;;;;;;;;;;;;;;;10.31;100.00;96163.00;5120980;28;20142;-76
2023/11/20 11:58:12;;;;;;;;;;;;;;;10.23;100.00;96168.56;5087688;28;20211;-74
2023/11/20 12:00:38;;;;;;;;;;;;;;;10.27;100.00;96175.75;5104812;28;19948;-74
2023/11/20 12:03:08;;;;;;;;;;;;;;;10.25;100.00;96169.94;5104874;28;20018;-74
2023/11/20 12:05:53;;;;;;;;;;;;;;;10.23;100.00;96179.03;5104957;28;19938;-74
2023/11/20 12:08:22;;;;;;;;;;;;;;;10.23;100.00;96171.19;5104843;28;19943;-74
2023/11/20 12:10:51;;;;;;;;;;;;;;;10.19;100.00;96162.16;5121404;28;19942;-75
2023/11/20 12:13:26;;;;;;;;;;;;;;;10.10;100.00;96151.97;5104807;28;19940;-82
2023/11/20 12:15:52;;;;;;;;;;;;;;;10.02;100.00;96159.34;5105010;28;19936;-76
2023/11/20 12:18:18;;;;;;;;;;;;;;;9.94;100.00;96144.72;5103527;28;20216;-76
2023/11/20 12:20:51;;;;;;;;;;;;;;;9.88;100.00;96156.88;5104613;28;19944;-76
2023/11/20 12:23:17;;;;;;;;;;;;;;;9.79;100.00;96152.19;5120300;28;19952;-76
2023/11/20 12:25:43;;;;;;;;;;;;;;;9.76;100.00;96153.41;5087240;28;19939;-75
2023/11/20 12:28:09;;;;;;;;;;;;;;;9.80;100.00;96146.69;5103239;28;19938;-76
2023/11/20 12:30:35;;;;;;;;;;;;;;;9.89;100.00;96144.56;5120780;28;20008;-72
2023/11/20 12:33:01;;;;;;;;;;;;;;;10.00;100.00;96143.84;5120372;28;19934;-84
2023/11/20 12:35:28;;;;;;;;;;;;;;;10.07;100.00;96141.94;5104701;28;20226;-84
2023/11/20 12:37:54;;;;;;;;;;;;;;;10.10;100.00;96138.88;5104624;28;20282;-83
2023/11/20 12:40:20;;;;;;;;;;;;;;;10.15;100.00;96146.06;5120768;28;19937;-84
2023/11/20 12:42:46;;;;;;;;;;;;;;;10.16;100.00;96134.56;5120197;28;19937;-85